Decoded Metar for YBRK (ROCKHAMPTON in AUSTRALIA) (IATA:ROK) | Meteo·Mobile Aviation Weather
aviador You're here:

YBRK Decoded Metar

ROCKHAMPTON in AUSTRALIA
Report Time2019-01-20 11:30:00
UTC Time2019-01-20 11:55:24
Flight Rules vfr VFR
Wind140° at 05 kt
W.Decomp.*RWY 15: 4.7 kt HW 1.6 kt LCW
RWY 22: 0.1 kt HW 5 kt LCW
W.Rank140° ranks 5
Current wind is below 140° avg. (6.3)
Visibility9999 m
Phenomena:N/A
Clouds:N/A
Expected CloudBase > 2,000 ft AGL from Temp-Dew spread
CeilingNone
Temp25°C (ISA +10)
Dew Point20°C (74% RH)
QNH1016 hPa
Density Alt1,421 ft
Elevation46 ft
Report Wrong Elevation
Raw Report
METAR YBRK 201130Z AUTO 14005KT 9999 // NCD 25/20 Q1016
RF00.0/000.0=

Extra information for YBRK:More info

Metar Taf Metar & Taf Last 4 Metars F.Rules Stats Wind Profile Meteogram Temp Stats Airport Information Weather charts Add Link Nearby VenuesMetar ALERT Operation Metar Decoded Social comments